sensor_id;sensor_type;location;lat;lon;timestamp;temperature;humidity
19007;DHT22;9636;47.382;8.480;2022-11-15T00:00:33;6.10;99.90
19007;DHT22;9636;47.382;8.480;2022-11-15T00:03:00;6.10;99.90
19007;DHT22;9636;47.382;8.480;2022-11-15T00:05:27;6.00;99.90
19007;DHT22;9636;47.382;8.480;2022-11-15T00:07:53;5.90;99.90
19007;DHT22;9636;47.382;8.480;2022-11-15T00:10:20;5.90;99.90
19007;DHT22;9636;47.382;8.480;2022-11-15T00:12:47;5.90;99.90
19007;DHT22;9636;47.382;8.480;2022-11-15T00:15:15;5.80;99.90
19007;DHT22;9636;47.382;8.480;2022-11-15T00:17:42;5.80;99.90
19007;DHT22;9636;47.382;8.480;2022-11-15T00:20:10;5.70;99.90
19007;DHT22;9636;47.382;8.480;2022-11-15T00:22:37;5.60;99.90
19007;DHT22;9636;47.382;8.480;2022-11-15T00:25:05;5.60;99.90
19007;DHT22;9636;47.382;8.480;2022-11-15T00:27:32;5.70;99.90
19007;DHT22;9636;47.382;8.480;2022-11-15T00:29:58;5.70;99.90
19007;DHT22;9636;47.382;8.480;2022-11-15T00:32:30;5.60;99.90
19007;DHT22;9636;47.382;8.480;2022-11-15T00:34:57;5.70;99.90
19007;DHT22;9636;47.382;8.480;2022-11-15T00:37:24;5.70;99.90
19007;DHT22;9636;47.382;8.480;2022-11-15T00:39:51;5.70;99.90
19007;DHT22;9636;47.382;8.480;2022-11-15T00:42:18;5.70;99.90
19007;DHT22;9636;47.382;8.480;2022-11-15T00:44:45;5.80;99.90
19007;DHT22;9636;47.382;8.480;2022-11-15T00:47:11;5.90;99.90
19007;DHT22;9636;47.382;8.480;2022-11-15T00:49:40;6.00;99.90
19007;DHT22;9636;47.382;8.480;2022-11-15T00:52:07;6.10;99.90
19007;DHT22;9636;47.382;8.480;2022-11-15T00:54:34;6.20;99.90
19007;DHT22;9636;47.382;8.480;2022-11-15T00:57:00;6.20;99.90
19007;DHT22;9636;47.382;8.480;2022-11-15T00:59:27;6.40;99.90
19007;DHT22;9636;47.382;8.480;2022-11-15T01:01:54;6.50;99.90
19007;DHT22;9636;47.382;8.480;2022-11-15T01:04:21;6.50;99.90
19007;DHT22;9636;47.382;8.480;2022-11-15T01:06:49;6.50;99.90
19007;DHT22;9636;47.382;8.480;2022-11-15T01:09:16;6.50;99.90
19007;DHT22;9636;47.382;8.480;2022-11-15T01:11:43;6.50;99.90
19007;DHT22;9636;47.382;8.480;2022-11-15T01:14:09;6.50;99.90
19007;DHT22;9636;47.382;8.480;2022-11-15T01:16:37;6.60;99.90
19007;DHT22;9636;47.382;8.480;2022-11-15T01:19:03;6.60;99.90
19007;DHT22;9636;47.382;8.480;2022-11-15T01:21:30;6.60;99.90
19007;DHT22;9636;47.382;8.480;2022-11-15T01:23:58;6.60;99.90
19007;DHT22;9636;47.382;8.480;2022-11-15T01:26:25;6.60;99.90
19007;DHT22;9636;47.382;8.480;2022-11-15T01:28:52;6.70;99.90
19007;DHT22;9636;47.382;8.480;2022-11-15T01:31:20;6.60;99.90
19007;DHT22;9636;47.382;8.480;2022-11-15T01:33:48;6.60;99.90
19007;DHT22;9636;47.382;8.480;2022-11-15T01:36:18;6.60;99.90
19007;DHT22;9636;47.382;8.480;2022-11-15T01:38:47;6.60;99.90
19007;DHT22;9636;47.382;8.480;2022-11-15T01:41:21;6.50;99.90
19007;DHT22;9636;47.382;8.480;2022-11-15T01:43:51;6.60;99.90
19007;DHT22;9636;47.382;8.480;2022-11-15T01:46:24;6.60;99.90
19007;DHT22;9636;47.382;8.480;2022-11-15T01:48:55;6.60;99.90
19007;DHT22;9636;47.382;8.480;2022-11-15T01:51:25;6.60;99.90
19007;DHT22;9636;47.382;8.480;2022-11-15T01:53:55;6.60;99.90
19007;DHT22;9636;47.382;8.480;2022-11-15T01:56:27;6.60;99.90
19007;DHT22;9636;47.382;8.480;2022-11-15T01:58:56;6.60;99.90
19007;DHT22;9636;47.382;8.480;2022-11-15T02:01:24;6.70;99.90
19007;DHT22;9636;47.382;8.480;2022-11-15T02:03:54;6.70;99.90
19007;DHT22;9636;47.382;8.480;2022-11-15T02:06:23;6.70;99.90
19007;DHT22;9636;47.382;8.480;2022-11-15T02:08:50;6.80;99.90
19007;DHT22;9636;47.382;8.480;2022-11-15T02:11:17;6.80;99.90
19007;DHT22;9636;47.382;8.480;2022-11-15T02:13:45;6.80;99.90
19007;DHT22;9636;47.382;8.480;2022-11-15T02:16:19;6.80;99.90
19007;DHT22;9636;47.382;8.480;2022-11-15T02:18:52;6.90;99.90
19007;DHT22;9636;47.382;8.480;2022-11-15T02:21:25;6.90;99.90
19007;DHT22;9636;47.382;8.480;2022-11-15T02:24:24;7.00;99.90
19007;DHT22;9636;47.382;8.480;2022-11-15T02:27:19;7.10;99.90
19007;DHT22;9636;47.382;8.480;2022-11-15T02:30:04;7.10;99.90
19007;DHT22;9636;47.382;8.480;2022-11-15T02:32:38;7.10;99.90
19007;DHT22;9636;47.382;8.480;2022-11-15T02:35:14;7.10;99.90
19007;DHT22;9636;47.382;8.480;2022-11-15T02:37:45;7.10;99.90
19007;DHT22;9636;47.382;8.480;2022-11-15T02:40:23;7.10;99.90
19007;DHT22;9636;47.382;8.480;2022-11-15T02:42:55;7.10;99.90
19007;DHT22;9636;47.382;8.480;2022-11-15T02:45:44;7.00;99.90
19007;DHT22;9636;47.382;8.480;2022-11-15T02:48:13;7.10;99.90
19007;DHT22;9636;47.382;8.480;2022-11-15T02:50:42;7.10;99.90
19007;DHT22;9636;47.382;8.480;2022-11-15T02:53:09;7.10;99.90
19007;DHT22;9636;47.382;8.480;2022-11-15T02:55:38;7.10;99.90
19007;DHT22;9636;47.382;8.480;2022-11-15T02:58:20;7.10;99.90
19007;DHT22;9636;47.382;8.480;2022-11-15T03:00:57;7.10;99.90
19007;DHT22;9636;47.382;8.480;2022-11-15T03:03:48;7.10;99.90
19007;DHT22;9636;47.382;8.480;2022-11-15T03:06:26;7.10;99.90
19007;DHT22;9636;47.382;8.480;2022-11-15T03:09:03;7.10;99.90
19007;DHT22;9636;47.382;8.480;2022-11-15T03:11:34;7.20;99.90
19007;DHT22;9636;47.382;8.480;2022-11-15T03:14:10;7.20;99.90
19007;DHT22;9636;47.382;8.480;2022-11-15T03:16:44;7.20;99.90
19007;DHT22;9636;47.382;8.480;2022-11-15T03:19:20;7.10;99.90
19007;DHT22;9636;47.382;8.480;2022-11-15T03:21:49;7.10;99.90
19007;DHT22;9636;47.382;8.480;2022-11-15T03:24:18;7.10;99.90
19007;DHT22;9636;47.382;8.480;2022-11-15T03:26:48;7.10;99.90
19007;DHT22;9636;47.382;8.480;2022-11-15T03:29:21;7.10;99.90
19007;DHT22;9636;47.382;8.480;2022-11-15T03:31:55;7.00;99.90
19007;DHT22;9636;47.382;8.480;2022-11-15T03:34:27;7.00;99.90
19007;DHT22;9636;47.382;8.480;2022-11-15T03:36:56;7.00;99.90
19007;DHT22;9636;47.382;8.480;2022-11-15T03:39:23;7.10;99.90
19007;DHT22;9636;47.382;8.480;2022-11-15T03:41:57;7.20;99.90
19007;DHT22;9636;47.382;8.480;2022-11-15T03:44:35;7.20;99.90
19007;DHT22;9636;47.382;8.480;2022-11-15T03:47:07;7.20;99.90
19007;DHT22;9636;47.382;8.480;2022-11-15T03:49:39;7.20;99.90
19007;DHT22;9636;47.382;8.480;2022-11-15T03:52:10;7.20;99.90
19007;DHT22;9636;47.382;8.480;2022-11-15T03:54:46;7.20;99.90
19007;DHT22;9636;47.382;8.480;2022-11-15T03:57:13;7.20;99.90
19007;DHT22;9636;47.382;8.480;2022-11-15T03:59:40;7.20;99.90
19007;DHT22;9636;47.382;8.480;2022-11-15T04:02:07;7.10;99.90
19007;DHT22;9636;47.382;8.480;2022-11-15T04:04:35;7.00;99.90
19007;DHT22;9636;47.382;8.480;2022-11-15T04:07:02;7.00;99.90
19007;DHT22;9636;47.382;8.480;2022-11-15T04:09:29;6.90;99.90
19007;DHT22;9636;47.382;8.480;2022-11-15T04:11:56;6.80;99.90
19007;DHT22;9636;47.382;8.480;2022-11-15T04:14:23;6.80;99.90
19007;DHT22;9636;47.382;8.480;2022-11-15T04:16:50;6.70;99.90
19007;DHT22;9636;47.382;8.480;2022-11-15T04:19:16;6.60;99.90
19007;DHT22;9636;47.382;8.480;2022-11-15T04:22:02;6.50;99.90
19007;DHT22;9636;47.382;8.480;2022-11-15T04:24:58;6.50;99.90
19007;DHT22;9636;47.382;8.480;2022-11-15T04:27:25;6.30;99.90
19007;DHT22;9636;47.382;8.480;2022-11-15T04:29:52;6.30;99.90
19007;DHT22;9636;47.382;8.480;2022-11-15T04:32:19;6.30;99.90
19007;DHT22;9636;47.382;8.480;2022-11-15T04:34:45;6.20;99.90
19007;DHT22;9636;47.382;8.480;2022-11-15T04:37:13;6.20;99.90
19007;DHT22;9636;47.382;8.480;2022-11-15T04:39:41;6.10;99.90
19007;DHT22;9636;47.382;8.480;2022-11-15T04:42:09;6.10;99.90
19007;DHT22;9636;47.382;8.480;2022-11-15T04:44:36;6.10;99.90
19007;DHT22;9636;47.382;8.480;2022-11-15T04:47:02;6.00;99.90
19007;DHT22;9636;47.382;8.480;2022-11-15T04:49:29;5.90;99.90
19007;DHT22;9636;47.382;8.480;2022-11-15T04:51:56;5.90;99.90
19007;DHT22;9636;47.382;8.480;2022-11-15T04:54:24;5.80;99.90
19007;DHT22;9636;47.382;8.480;2022-11-15T04:56:51;5.80;99.90
19007;DHT22;9636;47.382;8.480;2022-11-15T04:59:18;5.70;99.90
19007;DHT22;9636;47.382;8.480;2022-11-15T05:01:45;5.70;99.90
19007;DHT22;9636;47.382;8.480;2022-11-15T05:04:12;5.60;99.90
19007;DHT22;9636;47.382;8.480;2022-11-15T05:06:50;5.60;99.90
19007;DHT22;9636;47.382;8.480;2022-11-15T05:09:18;5.60;99.90
19007;DHT22;9636;47.382;8.480;2022-11-15T05:11:47;5.60;99.90
19007;DHT22;9636;47.382;8.480;2022-11-15T05:14:14;5.70;99.90
19007;DHT22;9636;47.382;8.480;2022-11-15T05:16:42;5.60;99.90
19007;DHT22;9636;47.382;8.480;2022-11-15T05:19:09;5.70;99.90
19007;DHT22;9636;47.382;8.480;2022-11-15T05:21:36;5.70;99.90
19007;DHT22;9636;47.382;8.480;2022-11-15T05:24:04;5.70;99.90
19007;DHT22;9636;47.382;8.480;2022-11-15T05:26:31;5.70;99.90
19007;DHT22;9636;47.382;8.480;2022-11-15T05:28:59;5.70;99.90
19007;DHT22;9636;47.382;8.480;2022-11-15T05:31:27;5.70;99.90
19007;DHT22;9636;47.382;8.480;2022-11-15T05:33:55;5.80;99.90
19007;DHT22;9636;47.382;8.480;2022-11-15T05:36:27;5.80;99.90
19007;DHT22;9636;47.382;8.480;2022-11-15T05:38:56;5.70;99.90
19007;DHT22;9636;47.382;8.480;2022-11-15T05:41:26;5.80;99.90
19007;DHT22;9636;47.382;8.480;2022-11-15T05:43:55;5.80;99.90
19007;DHT22;9636;47.382;8.480;2022-11-15T05:46:24;5.80;99.90
19007;DHT22;9636;47.382;8.480;2022-11-15T05:48:51;5.90;99.90
19007;DHT22;9636;47.382;8.480;2022-11-15T05:51:21;5.90;99.90
19007;DHT22;9636;47.382;8.480;2022-11-15T05:53:49;5.90;99.90
19007;DHT22;9636;47.382;8.480;2022-11-15T05:56:17;5.90;99.90
19007;DHT22;9636;47.382;8.480;2022-11-15T05:58:44;5.90;99.90
19007;DHT22;9636;47.382;8.480;2022-11-15T06:01:10;6.00;99.90
19007;DHT22;9636;47.382;8.480;2022-11-15T06:03:39;6.00;99.90
19007;DHT22;9636;47.382;8.480;2022-11-15T06:06:06;6.00;99.90
19007;DHT22;9636;47.382;8.480;2022-11-15T06:08:33;6.00;99.90
19007;DHT22;9636;47.382;8.480;2022-11-15T06:11:04;6.00;99.90
19007;DHT22;9636;47.382;8.480;2022-11-15T06:13:31;6.10;99.90
19007;DHT22;9636;47.382;8.480;2022-11-15T06:15:58;6.10;99.90
19007;DHT22;9636;47.382;8.480;2022-11-15T06:18:24;6.10;99.90
19007;DHT22;9636;47.382;8.480;2022-11-15T06:20:58;6.10;99.90
19007;DHT22;9636;47.382;8.480;2022-11-15T06:23:25;6.10;99.90
19007;DHT22;9636;47.382;8.480;2022-11-15T06:25:51;6.10;99.90
19007;DHT22;9636;47.382;8.480;2022-11-15T06:28:18;6.10;99.90
19007;DHT22;9636;47.382;8.480;2022-11-15T06:30:45;6.10;99.90
19007;DHT22;9636;47.382;8.480;2022-11-15T06:33:12;6.20;99.90
19007;DHT22;9636;47.382;8.480;2022-11-15T06:35:39;6.20;99.90
19007;DHT22;9636;47.382;8.480;2022-11-15T06:38:09;6.20;99.90
19007;DHT22;9636;47.382;8.480;2022-11-15T06:40:37;6.30;99.90
19007;DHT22;9636;47.382;8.480;2022-11-15T06:43:05;6.30;99.90
19007;DHT22;9636;47.382;8.480;2022-11-15T06:45:32;6.30;99.90
19007;DHT22;9636;47.382;8.480;2022-11-15T06:47:59;6.40;99.90
19007;DHT22;9636;47.382;8.480;2022-11-15T06:50:26;6.50;99.90
19007;DHT22;9636;47.382;8.480;2022-11-15T06:52:53;6.50;99.90
19007;DHT22;9636;47.382;8.480;2022-11-15T06:55:21;6.60;99.90
19007;DHT22;9636;47.382;8.480;2022-11-15T06:57:48;6.60;99.90
19007;DHT22;9636;47.382;8.480;2022-11-15T07:00:17;6.70;99.90
19007;DHT22;9636;47.382;8.480;2022-11-15T07:02:44;6.70;99.90
19007;DHT22;9636;47.382;8.480;2022-11-15T07:05:11;6.80;99.90
19007;DHT22;9636;47.382;8.480;2022-11-15T07:07:38;6.80;99.90
19007;DHT22;9636;47.382;8.480;2022-11-15T07:10:06;7.00;99.90
19007;DHT22;9636;47.382;8.480;2022-11-15T07:12:35;7.00;99.90
19007;DHT22;9636;47.382;8.480;2022-11-15T07:15:02;7.10;99.90
19007;DHT22;9636;47.382;8.480;2022-11-15T07:17:29;7.20;99.90
19007;DHT22;9636;47.382;8.480;2022-11-15T07:19:55;7.30;99.90
19007;DHT22;9636;47.382;8.480;2022-11-15T07:22:22;7.30;99.90
19007;DHT22;9636;47.382;8.480;2022-11-15T07:24:49;7.40;99.90
19007;DHT22;9636;47.382;8.480;2022-11-15T07:27:16;7.40;99.90
19007;DHT22;9636;47.382;8.480;2022-11-15T07:29:44;7.40;99.90
19007;DHT22;9636;47.382;8.480;2022-11-15T07:32:10;7.50;99.90
19007;DHT22;9636;47.382;8.480;2022-11-15T07:34:37;7.50;99.90
19007;DHT22;9636;47.382;8.480;2022-11-15T07:37:04;7.60;99.90
19007;DHT22;9636;47.382;8.480;2022-11-15T07:39:31;7.60;99.90
19007;DHT22;9636;47.382;8.480;2022-11-15T07:41:58;7.70;99.90
19007;DHT22;9636;47.382;8.480;2022-11-15T07:44:39;7.80;99.90
19007;DHT22;9636;47.382;8.480;2022-11-15T07:47:07;7.90;99.90
19007;DHT22;9636;47.382;8.480;2022-11-15T07:49:34;8.00;99.90
19007;DHT22;9636;47.382;8.480;2022-11-15T07:52:01;8.00;99.90
19007;DHT22;9636;47.382;8.480;2022-11-15T07:54:28;8.10;99.90
19007;DHT22;9636;47.382;8.480;2022-11-15T07:56:54;8.20;99.90
19007;DHT22;9636;47.382;8.480;2022-11-15T07:59:21;8.40;99.90
19007;DHT22;9636;47.382;8.480;2022-11-15T08:01:48;8.50;99.90
19007;DHT22;9636;47.382;8.480;2022-11-15T08:04:16;8.50;99.90
19007;DHT22;9636;47.382;8.480;2022-11-15T08:06:43;8.50;99.90
19007;DHT22;9636;47.382;8.480;2022-11-15T08:09:10;8.60;99.90
19007;DHT22;9636;47.382;8.480;2022-11-15T08:11:37;8.60;99.90
19007;DHT22;9636;47.382;8.480;2022-11-15T08:14:03;8.60;99.90
19007;DHT22;9636;47.382;8.480;2022-11-15T08:16:30;8.60;99.90
19007;DHT22;9636;47.382;8.480;2022-11-15T08:18:57;8.70;99.90
19007;DHT22;9636;47.382;8.480;2022-11-15T08:21:25;8.70;99.90
19007;DHT22;9636;47.382;8.480;2022-11-15T08:23:52;8.80;99.90
19007;DHT22;9636;47.382;8.480;2022-11-15T08:26:19;8.80;99.90
19007;DHT22;9636;47.382;8.480;2022-11-15T08:28:46;8.90;99.90
19007;DHT22;9636;47.382;8.480;2022-11-15T08:31:14;8.90;99.90
19007;DHT22;9636;47.382;8.480;2022-11-15T08:33:43;8.90;99.90
19007;DHT22;9636;47.382;8.480;2022-11-15T08:36:13;9.00;99.90
19007;DHT22;9636;47.382;8.480;2022-11-15T08:38:42;9.00;99.90
19007;DHT22;9636;47.382;8.480;2022-11-15T08:41:12;9.10;99.90
19007;DHT22;9636;47.382;8.480;2022-11-15T08:43:40;9.00;99.90
19007;DHT22;9636;47.382;8.480;2022-11-15T08:46:08;9.10;99.90
19007;DHT22;9636;47.382;8.480;2022-11-15T08:48:37;9.10;99.90
19007;DHT22;9636;47.382;8.480;2022-11-15T08:51:04;9.20;99.90
19007;DHT22;9636;47.382;8.480;2022-11-15T08:53:31;9.30;99.90
19007;DHT22;9636;47.382;8.480;2022-11-15T08:55:59;9.40;99.90
19007;DHT22;9636;47.382;8.480;2022-11-15T08:58:26;9.40;99.90
19007;DHT22;9636;47.382;8.480;2022-11-15T09:00:53;9.40;99.90
19007;DHT22;9636;47.382;8.480;2022-11-15T09:03:20;9.30;99.90
19007;DHT22;9636;47.382;8.480;2022-11-15T09:05:46;9.50;99.90
19007;DHT22;9636;47.382;8.480;2022-11-15T09:08:13;9.50;99.90
19007;DHT22;9636;47.382;8.480;2022-11-15T09:10:40;9.50;99.90
19007;DHT22;9636;47.382;8.480;2022-11-15T09:13:08;9.60;99.90
19007;DHT22;9636;47.382;8.480;2022-11-15T09:15:35;9.70;99.90
19007;DHT22;9636;47.382;8.480;2022-11-15T09:18:02;9.70;99.90
19007;DHT22;9636;47.382;8.480;2022-11-15T09:20:29;9.70;99.90
19007;DHT22;9636;47.382;8.480;2022-11-15T09:22:59;9.70;99.90
19007;DHT22;9636;47.382;8.480;2022-11-15T09:25:26;9.70;99.90
19007;DHT22;9636;47.382;8.480;2022-11-15T09:27:53;9.80;99.90
19007;DHT22;9636;47.382;8.480;2022-11-15T09:30:22;9.80;99.90
19007;DHT22;9636;47.382;8.480;2022-11-15T09:32:49;9.70;99.90
19007;DHT22;9636;47.382;8.480;2022-11-15T09:35:16;9.80;99.90
19007;DHT22;9636;47.382;8.480;2022-11-15T09:37:43;9.90;99.90
19007;DHT22;9636;47.382;8.480;2022-11-15T09:40:11;9.80;99.90
19007;DHT22;9636;47.382;8.480;2022-11-15T09:42:52;9.90;99.90
19007;DHT22;9636;47.382;8.480;2022-11-15T09:45:28;10.00;99.90
19007;DHT22;9636;47.382;8.480;2022-11-15T09:48:24;10.00;99.90
19007;DHT22;9636;47.382;8.480;2022-11-15T09:50:52;10.00;99.90
19007;DHT22;9636;47.382;8.480;2022-11-15T09:53:28;10.00;99.90
19007;DHT22;9636;47.382;8.480;2022-11-15T09:55:59;10.00;99.90
19007;DHT22;9636;47.382;8.480;2022-11-15T09:58:33;10.00;99.90
19007;DHT22;9636;47.382;8.480;2022-11-15T10:01:06;10.00;99.90
19007;DHT22;9636;47.382;8.480;2022-11-15T10:03:36;10.10;99.90
19007;DHT22;9636;47.382;8.480;2022-11-15T10:06:05;10.10;99.90
19007;DHT22;9636;47.382;8.480;2022-11-15T10:08:54;10.10;99.90
19007;DHT22;9636;47.382;8.480;2022-11-15T10:11:25;10.20;99.90
19007;DHT22;9636;47.382;8.480;2022-11-15T10:13:54;10.20;99.90
19007;DHT22;9636;47.382;8.480;2022-11-15T10:16:56;10.30;99.90
19007;DHT22;9636;47.382;8.480;2022-11-15T10:19:33;10.30;99.90
19007;DHT22;9636;47.382;8.480;2022-11-15T10:22:12;10.30;99.90
19007;DHT22;9636;47.382;8.480;2022-11-15T10:24:44;10.30;99.90
19007;DHT22;9636;47.382;8.480;2022-11-15T10:27:13;10.40;99.90
19007;DHT22;9636;47.382;8.480;2022-11-15T10:29:45;10.40;99.90
19007;DHT22;9636;47.382;8.480;2022-11-15T10:32:15;10.50;99.90
19007;DHT22;9636;47.382;8.480;2022-11-15T10:34:42;10.50;99.90
19007;DHT22;9636;47.382;8.480;2022-11-15T10:37:09;10.60;99.90
19007;DHT22;9636;47.382;8.480;2022-11-15T10:39:37;10.50;99.90
19007;DHT22;9636;47.382;8.480;2022-11-15T10:42:18;10.50;99.90
19007;DHT22;9636;47.382;8.480;2022-11-15T10:44:51;10.50;99.90
19007;DHT22;9636;47.382;8.480;2022-11-15T10:47:25;10.50;99.90
19007;DHT22;9636;47.382;8.480;2022-11-15T10:50:00;10.60;99.90
19007;DHT22;9636;47.382;8.480;2022-11-15T10:52:28;10.60;99.90
19007;DHT22;9636;47.382;8.480;2022-11-15T10:55:00;10.60;99.90
19007;DHT22;9636;47.382;8.480;2022-11-15T10:57:30;10.60;99.90
19007;DHT22;9636;47.382;8.480;2022-11-15T11:00:00;10.50;99.90
19007;DHT22;9636;47.382;8.480;2022-11-15T11:02:32;10.50;99.90
19007;DHT22;9636;47.382;8.480;2022-11-15T11:04:59;10.60;99.90
19007;DHT22;9636;47.382;8.480;2022-11-15T11:07:29;10.50;99.90
19007;DHT22;9636;47.382;8.480;2022-11-15T11:09:58;10.50;99.90
19007;DHT22;9636;47.382;8.480;2022-11-15T11:12:31;10.60;99.90
19007;DHT22;9636;47.382;8.480;2022-11-15T11:14:59;10.70;99.90
19007;DHT22;9636;47.382;8.480;2022-11-15T11:17:36;10.70;99.90
19007;DHT22;9636;47.382;8.480;2022-11-15T11:20:12;10.80;99.90
19007;DHT22;9636;47.382;8.480;2022-11-15T11:22:54;10.90;99.90
19007;DHT22;9636;47.382;8.480;2022-11-15T11:25:30;10.90;99.90
19007;DHT22;9636;47.382;8.480;2022-11-15T11:28:21;10.90;99.90
19007;DHT22;9636;47.382;8.480;2022-11-15T11:30:58;11.00;99.90
19007;DHT22;9636;47.382;8.480;2022-11-15T11:33:31;11.00;99.90
19007;DHT22;9636;47.382;8.480;2022-11-15T11:36:15;11.00;99.90
19007;DHT22;9636;47.382;8.480;2022-11-15T11:38:51;11.10;99.90
19007;DHT22;9636;47.382;8.480;2022-11-15T11:41:33;11.00;99.90
19007;DHT22;9636;47.382;8.480;2022-11-15T11:44:14;11.10;99.90
19007;DHT22;9636;47.382;8.480;2022-11-15T11:46:55;11.20;99.90
19007;DHT22;9636;47.382;8.480;2022-11-15T11:49:31;11.30;99.90
19007;DHT22;9636;47.382;8.480;2022-11-15T11:52:03;11.30;99.90
19007;DHT22;9636;47.382;8.480;2022-11-15T11:54:46;11.40;99.90
19007;DHT22;9636;47.382;8.480;2022-11-15T11:57:23;11.30;99.90
19007;DHT22;9636;47.382;8.480;2022-11-15T11:59:57;11.30;99.90
19007;DHT22;9636;47.382;8.480;2022-11-15T12:02:28;11.30;99.90
19007;DHT22;9636;47.382;8.480;2022-11-15T12:05:07;11.30;99.90
19007;DHT22;9636;47.382;8.480;2022-11-15T12:07:38;11.30;99.90
19007;DHT22;9636;47.382;8.480;2022-11-15T12:10:15;11.30;99.90
19007;DHT22;9636;47.382;8.480;2022-11-15T12:12:49;11.30;99.90
19007;DHT22;9636;47.382;8.480;2022-11-15T12:15:19;11.50;99.90
19007;DHT22;9636;47.382;8.480;2022-11-15T12:17:48;11.60;99.90
19007;DHT22;9636;47.382;8.480;2022-11-15T12:20:18;11.60;99.90
19007;DHT22;9636;47.382;8.480;2022-11-15T12:22:52;11.70;99.90
19007;DHT22;9636;47.382;8.480;2022-11-15T12:25:22;11.70;99.90
19007;DHT22;9636;47.382;8.480;2022-11-15T12:27:53;11.80;99.90
19007;DHT22;9636;47.382;8.480;2022-11-15T12:30:22;11.80;99.90
19007;DHT22;9636;47.382;8.480;2022-11-15T12:32:52;11.90;99.90
19007;DHT22;9636;47.382;8.480;2022-11-15T12:35:35;11.90;99.90
19007;DHT22;9636;47.382;8.480;2022-11-15T12:38:03;11.90;99.90
19007;DHT22;9636;47.382;8.480;2022-11-15T12:40:36;11.90;99.90
19007;DHT22;9636;47.382;8.480;2022-11-15T12:46:12;11.90;99.90
19007;DHT22;9636;47.382;8.480;2022-11-15T12:48:57;12.00;99.90
19007;DHT22;9636;47.382;8.480;2022-11-15T12:52:06;12.00;99.90
19007;DHT22;9636;47.382;8.480;2022-11-15T12:54:55;12.00;99.90
19007;DHT22;9636;47.382;8.480;2022-11-15T12:57:32;12.00;99.90
19007;DHT22;9636;47.382;8.480;2022-11-15T13:00:00;12.00;99.90
19007;DHT22;9636;47.382;8.480;2022-11-15T13:02:31;12.10;99.90
19007;DHT22;9636;47.382;8.480;2022-11-15T13:05:50;12.10;99.90
19007;DHT22;9636;47.382;8.480;2022-11-15T13:08:08;12.10;99.90
19007;DHT22;9636;47.382;8.480;2022-11-15T13:10:35;12.00;99.90
19007;DHT22;9636;47.382;8.480;2022-11-15T13:13:03;12.00;99.90
19007;DHT22;9636;47.382;8.480;2022-11-15T13:15:34;12.10;99.90
19007;DHT22;9636;47.382;8.480;2022-11-15T13:18:25;12.00;99.90
19007;DHT22;9636;47.382;8.480;2022-11-15T13:20:53;12.00;99.90
19007;DHT22;9636;47.382;8.480;2022-11-15T13:23:21;12.00;99.90
19007;DHT22;9636;47.382;8.480;2022-11-15T13:28:47;12.00;99.90
19007;DHT22;9636;47.382;8.480;2022-11-15T13:31:25;12.00;99.90
19007;DHT22;9636;47.382;8.480;2022-11-15T13:33:54;12.00;99.90
19007;DHT22;9636;47.382;8.480;2022-11-15T13:36:23;12.00;99.90
19007;DHT22;9636;47.382;8.480;2022-11-15T13:38:57;12.00;99.90
19007;DHT22;9636;47.382;8.480;2022-11-15T13:41:26;12.00;99.90
19007;DHT22;9636;47.382;8.480;2022-11-15T13:43:55;12.00;99.90
19007;DHT22;9636;47.382;8.480;2022-11-15T13:46:24;12.00;99.90
19007;DHT22;9636;47.382;8.480;2022-11-15T13:48:53;12.00;99.90
19007;DHT22;9636;47.382;8.480;2022-11-15T13:51:24;12.00;99.90
19007;DHT22;9636;47.382;8.480;2022-11-15T13:54:03;12.00;99.90
19007;DHT22;9636;47.382;8.480;2022-11-15T13:56:34;12.00;99.90
19007;DHT22;9636;47.382;8.480;2022-11-15T13:59:08;12.00;99.90
19007;DHT22;9636;47.382;8.480;2022-11-15T14:01:36;12.00;99.90
19007;DHT22;9636;47.382;8.480;2022-11-15T14:04:03;12.00;99.90
19007;DHT22;9636;47.382;8.480;2022-11-15T14:06:30;12.10;99.90
19007;DHT22;9636;47.382;8.480;2022-11-15T14:09:14;12.10;99.90
19007;DHT22;9636;47.382;8.480;2022-11-15T14:11:50;12.00;99.90
19007;DHT22;9636;47.382;8.480;2022-11-15T14:14:20;12.10;99.90
19007;DHT22;9636;47.382;8.480;2022-11-15T14:16:49;12.10;99.90
19007;DHT22;9636;47.382;8.480;2022-11-15T14:19:36;12.10;99.90
19007;DHT22;9636;47.382;8.480;2022-11-15T14:22:15;12.10;99.90
19007;DHT22;9636;47.382;8.480;2022-11-15T14:24:46;12.10;99.90
19007;DHT22;9636;47.382;8.480;2022-11-15T14:27:27;12.00;99.90
19007;DHT22;9636;47.382;8.480;2022-11-15T14:29:54;12.00;99.90
19007;DHT22;9636;47.382;8.480;2022-11-15T14:32:23;11.90;99.90
19007;DHT22;9636;47.382;8.480;2022-11-15T14:34:54;11.90;99.90
19007;DHT22;9636;47.382;8.480;2022-11-15T14:37:23;11.90;99.90
19007;DHT22;9636;47.382;8.480;2022-11-15T14:39:53;11.80;99.90
19007;DHT22;9636;47.382;8.480;2022-11-15T14:42:21;11.80;99.90
19007;DHT22;9636;47.382;8.480;2022-11-15T14:44:48;11.80;99.90
19007;DHT22;9636;47.382;8.480;2022-11-15T14:47:15;11.70;99.90
19007;DHT22;9636;47.382;8.480;2022-11-15T14:49:42;11.70;99.90
19007;DHT22;9636;47.382;8.480;2022-11-15T14:52:25;11.70;99.90
19007;DHT22;9636;47.382;8.480;2022-11-15T14:54:54;11.70;99.90
19007;DHT22;9636;47.382;8.480;2022-11-15T14:57:22;11.70;99.90
19007;DHT22;9636;47.382;8.480;2022-11-15T14:59:48;11.60;99.90
19007;DHT22;9636;47.382;8.480;2022-11-15T15:02:18;11.60;99.90
19007;DHT22;9636;47.382;8.480;2022-11-15T15:04:46;11.60;99.90
19007;DHT22;9636;47.382;8.480;2022-11-15T15:07:13;11.60;99.90
19007;DHT22;9636;47.382;8.480;2022-11-15T15:09:40;11.60;99.90
19007;DHT22;9636;47.382;8.480;2022-11-15T15:12:15;11.60;99.90
19007;DHT22;9636;47.382;8.480;2022-11-15T15:14:43;11.60;99.90
19007;DHT22;9636;47.382;8.480;2022-11-15T15:17:10;11.50;99.90
19007;DHT22;9636;47.382;8.480;2022-11-15T15:19:36;11.40;99.90
19007;DHT22;9636;47.382;8.480;2022-11-15T15:22:04;11.40;99.90
19007;DHT22;9636;47.382;8.480;2022-11-15T15:24:31;11.50;99.90
19007;DHT22;9636;47.382;8.480;2022-11-15T15:26:58;11.50;99.90
19007;DHT22;9636;47.382;8.480;2022-11-15T15:29:26;11.40;99.90
19007;DHT22;9636;47.382;8.480;2022-11-15T15:31:53;11.40;99.90
19007;DHT22;9636;47.382;8.480;2022-11-15T15:34:20;11.30;99.90
19007;DHT22;9636;47.382;8.480;2022-11-15T15:36:47;11.30;99.90
19007;DHT22;9636;47.382;8.480;2022-11-15T15:39:13;11.30;99.90
19007;DHT22;9636;47.382;8.480;2022-11-15T15:41:41;11.30;99.90
19007;DHT22;9636;47.382;8.480;2022-11-15T15:44:07;11.20;99.90
19007;DHT22;9636;47.382;8.480;2022-11-15T15:46:36;11.10;99.90
19007;DHT22;9636;47.382;8.480;2022-11-15T15:49:02;11.10;99.90
19007;DHT22;9636;47.382;8.480;2022-11-15T15:51:29;11.10;99.90
19007;DHT22;9636;47.382;8.480;2022-11-15T15:53:56;11.00;99.90
19007;DHT22;9636;47.382;8.480;2022-11-15T15:56:23;11.00;99.90
19007;DHT22;9636;47.382;8.480;2022-11-15T15:58:50;10.90;99.90
19007;DHT22;9636;47.382;8.480;2022-11-15T16:01:18;10.90;99.90
19007;DHT22;9636;47.382;8.480;2022-11-15T16:03:47;10.80;99.90
19007;DHT22;9636;47.382;8.480;2022-11-15T16:06:33;10.90;99.90
19007;DHT22;9636;47.382;8.480;2022-11-15T16:09:01;10.90;99.90
19007;DHT22;9636;47.382;8.480;2022-11-15T16:11:27;10.90;99.90
19007;DHT22;9636;47.382;8.480;2022-11-15T16:13:54;10.90;99.90
19007;DHT22;9636;47.382;8.480;2022-11-15T16:16:21;10.90;99.90
19007;DHT22;9636;47.382;8.480;2022-11-15T16:18:50;10.90;99.90
19007;DHT22;9636;47.382;8.480;2022-11-15T16:21:18;11.00;99.90